Time;durP1;ratioP1;P1;durP2;ratioP2;P2;SDS_P1;SDS_P2;PMS_P1;PMS_P2;Temp;Humidity;BMP_temperature;BMP_pressure;BME280_temperature;BME280_humidity;BME280_pressure;Samples;Min_cycle;Max_cycle;Signal;HPM_P1;HPM_P2
2021/10/27 00:01:33;;;;;;;22.45;12.40;;;;;;;25.27;19.14;98951.16;5062227;28;20036;-82
2021/10/27 00:03:59;;;;;;;26.10;12.77;;;;;;;25.42;18.84;98944.09;5070605;28;20055;-82
2021/10/27 00:06:26;;;;;;;24.08;13.82;;;;;;;24.25;20.61;98958.63;5074425;28;20036;-82
2021/10/27 00:08:52;;;;;;;25.00;14.35;;;;;;;24.11;21.13;98960.78;5071800;28;20036;-82
2021/10/27 00:11:18;;;;;;;25.48;12.88;;;;;;;23.72;21.41;98959.00;5066544;28;20037;-82
2021/10/27 00:13:45;;;;;;;20.50;11.77;;;;;;;23.99;21.47;98959.22;5066656;28;20036;-82
2021/10/27 00:16:12;;;;;;;17.63;10.27;;;;;;;24.33;20.71;98967.78;5068305;28;20033;-82
2021/10/27 00:18:38;;;;;;;20.63;11.32;;;;;;;24.71;20.58;98963.81;5061933;28;20608;-82
2021/10/27 00:21:04;;;;;;;17.63;10.43;;;;;;;24.98;20.11;98967.56;5061532;28;20052;-82
2021/10/27 00:23:31;;;;;;;20.85;11.52;;;;;;;25.09;19.60;98970.22;5066654;28;20033;-82
2021/10/27 00:25:57;;;;;;;23.17;11.40;;;;;;;25.20;19.31;98970.91;5064800;28;20041;-82
2021/10/27 00:28:23;;;;;;;25.98;13.85;;;;;;;25.33;19.43;98961.50;5071540;28;20489;-82
2021/10/27 00:30:49;;;;;;;21.02;12.07;;;;;;;25.36;18.87;98965.47;5069318;28;20095;-82
2021/10/27 00:33:16;;;;;;;23.70;12.65;;;;;;;25.32;19.32;98959.88;5076153;28;20033;-82
2021/10/27 00:35:42;;;;;;;19.48;10.45;;;;;;;24.83;20.01;98963.31;5068068;28;20033;-82
2021/10/27 00:38:08;;;;;;;15.95;9.52;;;;;;;24.58;20.10;98974.75;5069371;28;20033;-82
2021/10/27 00:40:35;;;;;;;15.95;8.75;;;;;;;24.53;20.09;98971.59;5069605;28;20048;-82
2021/10/27 00:43:01;;;;;;;15.90;8.52;;;;;;;24.49;20.13;98973.66;5064968;28;20486;-83
2021/10/27 00:45:27;;;;;;;16.02;8.38;;;;;;;24.52;19.86;98967.22;5066060;28;20600;-83
2021/10/27 00:47:53;;;;;;;13.95;7.95;;;;;;;24.80;19.43;98963.34;5071719;28;20380;-83
2021/10/27 00:50:19;;;;;;;19.55;9.43;;;;;;;24.97;19.40;98970.78;5069611;28;20036;-82
2021/10/27 00:52:45;;;;;;;18.75;9.45;;;;;;;24.76;19.54;98979.41;5065912;28;20075;-83
2021/10/27 00:55:13;;;;;;;15.30;8.00;;;;;;;24.73;19.71;98967.00;5073080;28;20064;-83
2021/10/27 00:57:39;;;;;;;19.00;9.13;;;;;;;24.88;19.41;98968.47;5054251;28;20021;-82
2021/10/27 01:00:07;;;;;;;18.05;9.02;;;;;;;24.94;19.29;98966.00;5067735;28;20504;-82
2021/10/27 01:02:34;;;;;;;13.00;7.55;;;;;;;24.83;19.83;98966.13;5075552;28;20034;-82
2021/10/27 01:05:00;;;;;;;14.63;7.57;;;;;;;24.71;19.70;98955.38;5082594;28;20021;-82
2021/10/27 01:07:27;;;;;;;14.25;7.85;;;;;;;24.65;19.40;98951.44;5073428;28;20025;-82
2021/10/27 01:09:53;;;;;;;15.60;8.63;;;;;;;24.50;20.04;98958.41;5070379;28;20547;-82
2021/10/27 01:12:19;;;;;;;13.25;8.35;;;;;;;23.95;20.67;98967.66;5070036;28;20061;-82
2021/10/27 01:14:48;;;;;;;15.32;8.68;;;;;;;23.43;21.41;98957.59;5066019;28;20028;-82
2021/10/27 01:17:16;;;;;;;14.07;7.93;;;;;;;23.60;20.81;98964.28;5069890;28;20483;-82
2021/10/27 01:19:53;;;;;;;15.88;7.82;;;;;;;23.80;20.49;98957.75;5069830;28;20068;-82
2021/10/27 01:22:24;;;;;;;12.40;6.78;;;;;;;24.29;20.13;98955.81;5045432;28;20052;-82
2021/10/27 01:24:50;;;;;;;18.65;9.35;;;;;;;24.48;19.69;98958.03;5070012;28;20025;-82
2021/10/27 01:27:16;;;;;;;14.07;8.15;;;;;;;24.13;20.15;98963.97;5070202;28;20059;-82
2021/10/27 01:29:43;;;;;;;13.52;7.63;;;;;;;24.16;20.61;98960.31;5067570;28;20029;-82
2021/10/27 01:32:19;;;;;;;12.52;7.25;;;;;;;24.21;20.41;98969.09;5068002;28;20036;-82
2021/10/27 01:34:45;;;;;;;14.27;7.10;;;;;;;24.27;20.05;98963.84;5066319;28;20020;-82
2021/10/27 01:37:11;;;;;;;12.93;7.25;;;;;;;24.38;20.02;98958.91;5069008;28;20033;-82
2021/10/27 01:39:37;;;;;;;12.43;7.25;;;;;;;24.58;19.85;98965.53;5068195;28;20044;-82
2021/10/27 01:42:03;;;;;;;13.48;7.53;;;;;;;24.76;19.46;98963.41;5068104;28;20379;-82
2021/10/27 01:44:29;;;;;;;15.85;8.10;;;;;;;24.75;19.25;98964.56;5067376;28;20029;-82
2021/10/27 01:46:55;;;;;;;12.50;7.30;;;;;;;24.81;19.39;98970.56;5068328;28;20032;-82
2021/10/27 01:49:21;;;;;;;13.32;6.80;;;;;;;24.48;19.51;98974.88;5066189;28;20032;-82
2021/10/27 01:51:48;;;;;;;12.07;7.03;;;;;;;24.39;19.75;98985.75;5071615;28;20409;-82
2021/10/27 01:54:14;;;;;;;13.02;7.18;;;;;;;24.34;19.69;98975.78;5068602;28;21752;-82
2021/10/27 01:56:40;;;;;;;15.13;7.10;;;;;;;24.48;19.23;98980.50;5068809;28;20040;-82
2021/10/27 01:59:06;;;;;;;13.32;7.15;;;;;;;24.55;19.72;98981.19;5075088;28;20074;-82
2021/10/27 02:01:32;;;;;;;10.43;6.18;;;;;;;24.36;19.84;98972.59;5073482;28;20037;-81
2021/10/27 02:03:58;;;;;;;14.98;7.20;;;;;;;24.22;19.66;98983.94;5069815;28;20033;-82
2021/10/27 02:06:25;;;;;;;13.00;6.88;;;;;;;24.06;20.15;98970.44;5066552;28;20021;-82
2021/10/27 02:08:51;;;;;;;13.80;7.35;;;;;;;23.94;20.05;98982.09;5065625;28;20039;-82
2021/10/27 02:11:17;;;;;;;10.48;6.35;;;;;;;24.07;19.97;98985.22;5070243;28;20025;-82
2021/10/27 02:13:43;;;;;;;13.07;7.18;;;;;;;24.19;19.91;98984.75;5070718;28;20111;-82
2021/10/27 02:16:09;;;;;;;12.15;6.43;;;;;;;24.18;19.96;99000.00;5074027;28;20039;-82
2021/10/27 02:18:36;;;;;;;11.93;6.15;;;;;;;24.05;20.30;98997.66;5064661;28;20410;-82
2021/10/27 02:21:02;;;;;;;10.63;5.50;;;;;;;24.27;19.60;99003.13;5065101;28;20445;-82
2021/10/27 02:23:28;;;;;;;12.63;6.13;;;;;;;24.55;19.50;99003.66;5073614;28;20055;-82
2021/10/27 02:25:54;;;;;;;11.40;5.13;;;;;;;24.64;19.59;99006.78;5071639;28;20028;-82
2021/10/27 02:28:20;;;;;;;10.65;5.95;;;;;;;24.86;19.44;99001.00;5071960;28;20033;-82
2021/10/27 02:30:46;;;;;;;10.85;5.85;;;;;;;24.90;19.74;99004.59;5062891;28;20048;-82
2021/10/27 02:33:12;;;;;;;11.88;6.05;;;;;;;24.69;19.90;99008.38;5065629;28;20118;-81
2021/10/27 02:35:38;;;;;;;8.88;5.63;;;;;;;24.71;19.78;99000.31;5067550;28;20032;-81
2021/10/27 02:38:04;;;;;;;10.63;5.72;;;;;;;24.81;19.60;99007.84;5070756;28;20033;-81
2021/10/27 02:40:31;;;;;;;11.27;5.97;;;;;;;24.78;19.82;98996.69;5066820;28;20100;-82
2021/10/27 02:42:57;;;;;;;9.60;5.88;;;;;;;24.44;20.01;99011.41;5064570;28;20039;-82
2021/10/27 02:45:23;;;;;;;10.15;5.40;;;;;;;24.55;19.80;99012.09;5068754;28;20119;-82
2021/10/27 02:47:49;;;;;;;9.60;5.60;;;;;;;24.69;19.75;99022.41;5066705;28;20033;-82
2021/10/27 02:50:16;;;;;;;11.60;6.40;;;;;;;24.93;19.64;99015.75;5069449;28;20033;-82
2021/10/27 02:52:45;;;;;;;13.80;6.78;;;;;;;25.18;19.61;99007.06;5066539;28;20052;-82
2021/10/27 02:55:12;;;;;;;9.48;5.78;;;;;;;25.29;19.36;99011.34;5070972;28;20031;-82
2021/10/27 02:57:38;;;;;;;10.82;6.28;;;;;;;25.36;18.91;99016.09;5072446;28;20472;-82
2021/10/27 03:00:09;;;;;;;10.63;6.28;;;;;;;24.95;18.87;99010.53;5071135;28;20036;-82
2021/10/27 03:02:37;;;;;;;11.68;6.47;;;;;;;24.72;19.46;99013.94;5067759;28;20044;-81
2021/10/27 03:05:04;;;;;;;9.98;6.03;;;;;;;24.75;19.06;99012.31;5070753;28;20115;-81
2021/10/27 03:07:30;;;;;;;12.18;5.85;;;;;;;24.58;19.30;99016.88;5051234;28;20029;-81
2021/10/27 03:09:56;;;;;;;8.93;5.55;;;;;;;24.57;19.79;99017.31;5054741;28;20041;-80
2021/10/27 03:12:23;;;;;;;14.10;6.40;;;;;;;24.49;19.25;99022.19;5064465;28;20094;-82
2021/10/27 03:14:49;;;;;;;9.13;5.40;;;;;;;24.61;19.26;99024.50;5063919;28;20120;-82
2021/10/27 03:17:19;;;;;;;8.20;5.18;;;;;;;24.62;19.14;99026.06;5054696;28;20033;-82
2021/10/27 03:19:45;;;;;;;10.30;5.65;;;;;;;24.70;19.39;99027.59;5067888;28;20083;-82
2021/10/27 03:22:12;;;;;;;10.68;6.57;;;;;;;24.36;19.74;99023.91;5070505;28;20028;-82
2021/10/27 03:24:38;;;;;;;8.48;5.30;;;;;;;24.48;19.44;99025.41;5068542;28;20032;-82
2021/10/27 03:27:04;;;;;;;12.63;6.78;;;;;;;24.60;20.09;99024.88;5067484;28;20032;-82
2021/10/27 03:29:30;;;;;;;10.18;5.90;;;;;;;24.11;20.32;99030.91;5077741;28;20082;-83
2021/10/27 03:31:56;;;;;;;13.77;6.97;;;;;;;24.18;20.17;99031.66;5075144;28;20077;-82
2021/10/27 03:34:22;;;;;;;8.35;5.90;;;;;;;24.39;20.13;99033.47;5073007;28;20107;-82
2021/10/27 03:36:48;;;;;;;9.52;5.35;;;;;;;24.50;19.84;99035.03;5063545;28;20094;-82
2021/10/27 03:39:14;;;;;;;9.38;5.40;;;;;;;24.51;19.70;99036.59;5082218;28;20494;-82
2021/10/27 03:41:41;;;;;;;9.55;5.72;;;;;;;24.49;19.74;99039.03;5067856;28;20028;-83
2021/10/27 03:44:08;;;;;;;11.18;5.65;;;;;;;24.18;20.24;99051.28;5064413;28;20490;-82
2021/10/27 03:46:34;;;;;;;9.25;5.55;;;;;;;23.95;20.22;99046.19;5069798;28;20504;-83
2021/10/27 03:49:00;;;;;;;8.32;5.47;;;;;;;23.87;20.38;99041.84;5070413;28;20077;-83
2021/10/27 03:51:26;;;;;;;9.13;5.18;;;;;;;24.03;20.56;99056.19;5065207;28;20444;-83
2021/10/27 03:53:52;;;;;;;9.63;5.68;;;;;;;24.13;20.45;99054.56;5072631;28;20024;-83
2021/10/27 03:56:19;;;;;;;11.43;5.55;;;;;;;24.34;19.90;99053.59;5068841;28;20158;-82
2021/10/27 03:58:46;;;;;;;13.82;6.53;;;;;;;24.63;19.91;99046.53;5071275;28;20040;-83
2021/10/27 04:01:12;;;;;;;11.10;5.63;;;;;;;24.77;19.59;99049.25;5068184;28;20100;-83
2021/10/27 04:03:38;;;;;;;10.38;6.30;;;;;;;24.90;19.42;99041.09;5064319;28;20036;-83
2021/10/27 04:06:05;;;;;;;10.30;5.93;;;;;;;24.97;18.98;99041.03;5051923;28;20032;-84
2021/10/27 04:08:32;;;;;;;10.07;5.82;;;;;;;24.67;19.58;99044.47;5061296;28;20056;-83
2021/10/27 04:10:58;;;;;;;9.63;6.03;;;;;;;24.52;19.57;99043.81;5060142;28;20064;-83
2021/10/27 04:13:24;;;;;;;11.88;6.82;;;;;;;24.28;19.59;99046.81;5069304;28;20036;-83
2021/10/27 04:15:50;;;;;;;10.95;6.55;;;;;;;23.95;20.01;99048.19;5065228;28;20036;-83
2021/10/27 04:18:17;;;;;;;11.73;6.50;;;;;;;24.03;20.21;99044.16;5067692;28;20033;-83
2021/10/27 04:20:43;;;;;;;9.32;5.75;;;;;;;24.09;19.91;99048.16;5064505;28;20044;-83
2021/10/27 04:23:10;;;;;;;9.10;5.45;;;;;;;24.26;19.58;99052.03;5066372;28;20048;-83
2021/10/27 04:25:36;;;;;;;10.50;6.00;;;;;;;24.42;19.32;99050.31;5063112;28;20040;-83
2021/10/27 04:28:03;;;;;;;9.80;5.70;;;;;;;24.49;19.50;99053.06;5069627;28;20103;-83
2021/10/27 04:30:29;;;;;;;12.15;5.93;;;;;;;24.54;19.28;99051.81;5061751;28;20063;-83
2021/10/27 04:32:55;;;;;;;8.85;5.60;;;;;;;24.64;19.25;99048.91;5063972;28;20413;-83
2021/10/27 04:35:22;;;;;;;12.68;6.15;;;;;;;24.37;19.55;99050.75;5066051;28;20071;-83
2021/10/27 04:37:49;;;;;;;10.85;5.80;;;;;;;24.11;19.65;99051.34;5065287;28;20425;-83
2021/10/27 04:40:18;;;;;;;10.18;5.72;;;;;;;24.21;19.70;99060.91;5056631;28;20119;-83
2021/10/27 04:42:45;;;;;;;12.75;6.25;;;;;;;24.41;19.32;99059.94;5051734;28;20462;-83
2021/10/27 04:45:12;;;;;;;10.88;5.70;;;;;;;24.51;19.11;99058.25;5065473;28;20032;-84
2021/10/27 04:47:39;;;;;;;9.48;5.63;;;;;;;24.53;19.00;99059.44;5068208;28;20086;-84
2021/10/27 04:50:23;;;;;;;11.15;6.55;;;;;;;24.57;18.93;99053.81;5062148;28;20039;-84
2021/10/27 04:52:55;;;;;;;11.45;6.40;;;;;;;24.17;19.25;99060.13;5052434;28;20098;-84
2021/10/27 04:55:21;;;;;;;11.75;6.65;;;;;;;;;;5063936;28;20038;-84
2021/10/27 04:57:47;;;;;;;10.35;6.25;;;;;;;23.51;20.71;99059.25;5074488;28;20115;-83
2021/10/27 05:00:14;;;;;;;12.57;6.50;;;;;;;23.35;20.97;99065.31;5070862;28;20486;-84
2021/10/27 05:02:40;;;;;;;11.30;6.30;;;;;;;23.33;20.94;99070.50;5066841;28;20037;-83
2021/10/27 05:05:07;;;;;;;12.60;6.53;;;;;;;23.52;20.85;99081.28;5069583;28;20032;-84
2021/10/27 05:07:33;;;;;;;11.27;6.97;;;;;;;23.44;21.04;99079.69;5066254;28;20078;-84
2021/10/27 05:10:00;;;;;;;12.65;5.40;;;;;;;23.79;20.30;99082.34;5067912;28;20437;-83
2021/10/27 05:12:26;;;;;;;11.73;6.25;;;;;;;24.09;20.09;99078.19;5065454;28;20028;-83
2021/10/27 05:14:53;;;;;;;11.38;5.75;;;;;;;24.22;19.89;99080.16;5069380;28;20505;-83
2021/10/27 05:17:19;;;;;;;9.23;5.10;;;;;;;24.36;19.91;99088.47;5062730;28;20501;-83
2021/10/27 05:19:46;;;;;;;10.35;6.32;;;;;;;24.32;19.85;99084.09;5066686;28;20045;-83
2021/10/27 05:22:16;;;;;;;9.85;5.80;;;;;;;24.44;19.69;99084.38;5065058;28;20436;-85
2021/10/27 05:24:43;;;;;;;8.10;4.80;;;;;;;24.67;19.39;99092.22;5068119;28;20045;-82
2021/10/27 05:27:09;;;;;;;10.15;5.72;;;;;;;24.80;19.13;99098.97;5059429;28;20124;-84
2021/10/27 05:29:36;;;;;;;10.52;6.13;;;;;;;24.59;19.35;99093.50;5066024;28;20441;-84
2021/10/27 05:32:06;;;;;;;11.75;5.47;;;;;;;24.55;19.25;99092.75;5081828;28;20508;-83
2021/10/27 05:34:32;;;;;;;11.02;6.10;;;;;;;24.23;19.89;99101.38;5070288;28;20156;-84
2021/10/27 05:36:58;;;;;;;10.05;5.28;;;;;;;24.02;19.91;99098.66;5079785;28;20157;-84
2021/10/27 05:39:24;;;;;;;9.43;5.38;;;;;;;23.80;20.91;99102.78;5074977;28;20503;-84
2021/10/27 05:41:50;;;;;;;8.13;5.30;;;;;;;23.80;20.97;99102.78;5069774;28;20044;-83
2021/10/27 05:44:20;;;;;;;7.97;4.75;;;;;;;24.13;20.51;99107.88;5070446;28;20042;-83
2021/10/27 05:46:48;;;;;;;8.88;5.13;;;;;;;24.36;20.15;99112.94;5072065;28;20035;-83
2021/10/27 05:49:22;;;;;;;7.45;4.57;;;;;;;24.29;20.48;99113.78;5074964;28;20036;-83
2021/10/27 05:55:00;;;;;;;8.48;4.90;;;;;;;24.17;20.98;99117.06;5069859;28;20385;-83
2021/10/27 05:55:17;;;;;;;7.00;3.88;;;;;;;24.33;20.83;99119.34;5070159;28;20055;-83
2021/10/27 05:57:43;;;;;;;6.60;4.05;;;;;;;24.72;20.56;99122.69;5068292;28;20052;-83
2021/10/27 06:00:11;;;;;;;9.95;4.60;;;;;;;24.89;20.18;99124.56;5069888;28;20039;-83
2021/10/27 06:02:38;;;;;;;7.50;4.82;;;;;;;24.80;20.04;99129.06;5066962;28;20021;-83
2021/10/27 06:05:05;;;;;;;9.20;5.25;;;;;;;24.76;20.05;99129.13;5051314;28;20112;-83
2021/10/27 06:07:34;;;;;;;7.18;5.18;;;;;;;24.67;20.50;99132.34;5066611;28;20029;-83
2021/10/27 06:10:00;;;;;;;11.02;5.13;;;;;;;24.56;21.04;99133.63;5069279;28;20032;-83
2021/10/27 06:12:28;;;;;;;7.47;5.05;;;;;;;24.93;20.84;99130.16;5066809;28;20032;-83
2021/10/27 06:14:54;;;;;;;8.52;5.40;;;;;;;25.48;20.14;99135.69;5067704;28;20460;-84
2021/10/27 06:17:20;;;;;;;8.25;5.78;;;;;;;25.73;19.94;99148.25;5070897;28;20044;-83
2021/10/27 06:19:47;;;;;;;9.55;5.00;;;;;;;25.75;19.99;99137.38;5072419;28;20048;-83
2021/10/27 06:22:13;;;;;;;8.88;5.07;;;;;;;26.11;19.31;99140.56;5068338;28;20029;-83
2021/10/27 06:24:40;;;;;;;6.28;4.30;;;;;;;26.28;19.27;99141.53;5069369;28;20111;-83
2021/10/27 06:27:07;;;;;;;5.60;4.55;;;;;;;25.57;19.48;99147.22;5072708;28;20032;-83
2021/10/27 06:29:57;;;;;;;6.55;4.57;;;;;;;25.40;20.11;99149.78;5070932;28;20028;-84
2021/10/27 06:32:32;;;;;;;7.63;4.95;;;;;;;25.69;20.31;99146.69;5070588;28;20051;-83
2021/10/27 06:35:22;;;;;;;8.48;5.57;;;;;;;26.01;19.91;99141.47;5063904;28;20032;-84
2021/10/27 06:48:27;;;;;;;8.57;5.32;;;;;;;25.99;19.99;99135.47;5071990;28;20075;-83
2021/10/27 06:50:53;;;;;;;7.38;4.53;;;;;;;26.21;20.00;99128.34;5066301;28;20497;-83
2021/10/27 06:53:20;;;;;;;8.23;4.95;;;;;;;25.89;20.72;99128.75;5065009;28;20474;-84
2021/10/27 06:55:46;;;;;;;7.07;5.10;;;;;;;25.73;21.07;99131.38;5068224;28;20064;-84
2021/10/27 06:58:16;;;;;;;8.93;6.47;;;;;;;25.27;21.90;99136.66;5059727;28;20037;-84
2021/10/27 07:00:46;;;;;;;7.82;6.03;;;;;;;25.49;21.84;99145.69;5059842;28;20041;-84
2021/10/27 07:17:08;;;;;;;9.70;5.18;;;;;;;26.39;22.19;99142.19;5066606;28;20055;-84
2021/10/27 07:19:34;;;;;;;9.95;4.57;;;;;;;26.31;22.07;99140.69;5069042;28;20040;-84
2021/10/27 07:22:00;;;;;;;7.72;4.82;;;;;;;26.45;21.72;99141.28;5067160;28;20029;-84
2021/10/27 07:24:27;;;;;;;12.63;5.75;;;;;;;26.51;22.42;99150.06;5068736;28;20074;-84
2021/10/27 07:26:54;;;;;;;9.73;5.53;;;;;;;26.55;21.99;99142.34;5067335;28;20044;-84
2021/10/27 07:29:21;;;;;;;8.18;5.55;;;;;;;26.45;21.84;99143.28;5062560;28;20107;-84
2021/10/27 07:31:49;;;;;;;10.65;5.50;;;;;;;26.77;21.50;99143.63;5063189;28;20108;-84
2021/10/27 07:34:16;;;;;;;7.93;5.00;;;;;;;27.00;21.16;99143.63;5063808;28;20508;-83
2021/10/27 07:42:11;;;;;;;10.48;5.25;;;;;;;27.25;21.54;99144.03;5071775;28;20127;-83
2021/10/27 07:44:37;;;;;;;6.57;4.45;;;;;;;27.46;20.78;99142.84;5069311;28;20390;-83
2021/10/27 07:47:04;;;;;;;8.18;5.45;;;;;;;27.83;20.79;99150.19;5063799;28;20120;-83
2021/10/27 07:49:30;;;;;;;8.93;6.03;;;;;;;27.38;20.99;99141.38;5066463;28;20053;-83
2021/10/27 07:51:56;;;;;;;9.38;5.65;;;;;;;27.03;21.79;99139.97;5065425;28;20036;-83
2021/10/27 07:54:22;;;;;;;8.65;5.50;;;;;;;27.08;21.90;99142.31;5065974;28;20032;-83
2021/10/27 07:56:50;;;;;;;10.90;5.25;;;;;;;27.36;21.19;99149.44;5065420;28;20539;-83
2021/10/27 07:59:17;;;;;;;7.68;5.43;;;;;;;27.14;21.36;99157.50;5068230;28;20029;-83
2021/10/27 08:01:43;;;;;;;8.48;5.07;;;;;;;27.42;21.89;99149.78;5066064;28;20032;-83
2021/10/27 08:04:09;;;;;;;9.27;4.47;;;;;;;27.77;21.35;99147.06;5064560;28;20187;-83
2021/10/27 08:06:36;;;;;;;7.32;4.40;;;;;;;28.21;20.44;99147.81;5064973;28;20401;-83
2021/10/27 08:09:03;;;;;;;8.45;6.00;;;;;;;27.98;20.94;99143.81;5068471;28;20104;-83
2021/10/27 08:11:32;;;;;;;6.40;4.45;;;;;;;27.83;21.13;99138.91;5060429;28;20060;-87
2021/10/27 08:13:58;;;;;;;6.28;4.38;;;;;;;28.18;21.15;99131.72;5068606;28;20107;-84
2021/10/27 08:16:24;;;;;;;6.75;4.25;;;;;;;28.64;20.71;99135.13;5053060;28;20064;-84
2021/10/27 08:18:51;;;;;;;9.55;5.82;;;;;;;28.56;20.23;99144.97;5069102;28;20048;-83
2021/10/27 08:21:17;;;;;;;9.52;5.03;;;;;;;28.65;20.50;99142.38;5065180;28;20036;-84
2021/10/27 08:23:45;;;;;;;8.00;6.03;;;;;;;27.46;21.82;99147.69;5068592;28;20036;-84
2021/10/27 08:26:16;;;;;;;6.72;4.40;;;;;;;27.84;21.49;99146.91;5066339;28;20029;-83
2021/10/27 08:28:49;;;;;;;6.60;3.63;;;;;;;28.25;21.51;99140.84;5060624;28;20033;-84
2021/10/27 08:31:38;;;;;;;4.00;3.00;;;;;;;28.32;21.10;99143.50;5066297;28;20024;-84
2021/10/27 08:34:11;;;;;;;10.00;5.07;;;;;;;28.88;21.29;99158.38;5066776;28;20456;-84
2021/10/27 08:36:37;;;;;;;6.95;3.75;;;;;;;29.01;20.67;99145.09;5063509;28;20552;-84
2021/10/27 08:39:05;;;;;;;5.78;4.10;;;;;;;28.89;20.41;99145.03;5063661;28;20111;-84
2021/10/27 08:41:32;;;;;;;6.47;3.78;;;;;;;29.24;20.63;99147.75;5069046;28;20044;-84
2021/10/27 08:43:59;;;;;;;6.15;3.65;;;;;;;29.63;20.61;99143.09;5066563;28;20033;-84
2021/10/27 08:46:26;;;;;;;9.02;4.50;;;;;;;29.76;19.54;99141.13;5065844;28;20559;-84
2021/10/27 08:48:55;;;;;;;6.05;3.30;;;;;;;29.78;20.21;99141.50;5069025;28;20028;-84
2021/10/27 08:51:26;;;;;;;7.28;4.05;;;;;;;30.17;19.48;99141.16;5063420;28;20040;-84
2021/10/27 08:53:53;;;;;;;4.75;3.25;;;;;;;30.50;19.44;99144.63;5068452;28;20111;-84
2021/10/27 08:56:19;;;;;;;5.05;3.72;;;;;;;30.69;18.85;99140.78;5063230;28;20431;-84
2021/10/27 08:58:49;;;;;;;4.47;3.17;;;;;;;30.50;19.50;99142.56;5062097;28;20078;-84
2021/10/27 09:07:19;;;;;;;3.88;2.97;;;;;;;30.25;19.69;99136.84;5064190;28;20044;-83
2021/10/27 09:15:49;;;;;;;5.25;3.35;;;;;;;30.96;19.17;99135.44;5072607;28;20103;-81
2021/10/27 09:36:06;;;;;;;4.53;2.33;;;;;;;30.40;19.40;99128.72;5071024;28;20060;-82
2021/10/27 10:06:31;;;;;;;2.63;1.45;;;;;;;31.18;18.15;99127.00;5074632;28;20082;-83
2021/10/27 10:08:58;;;;;;;2.97;1.73;;;;;;;30.96;18.93;99112.75;5060926;28;20028;-83
2021/10/27 10:11:25;;;;;;;6.40;1.73;;;;;;;31.17;18.58;99120.53;5068824;28;20033;-83
2021/10/27 10:13:56;;;;;;;1.38;1.00;;;;;;;31.54;18.63;99118.03;5072248;28;20024;-83
2021/10/27 10:16:24;;;;;;;1.90;1.65;;;;;;;31.70;18.60;99121.50;5055874;28;20081;-83
2021/10/27 10:18:51;;;;;;;1.40;1.10;;;;;;;32.08;18.32;99119.28;5065129;28;20040;-82
2021/10/27 10:21:25;;;;;;;3.33;1.75;;;;;;;32.17;17.96;99118.53;5066178;28;20385;-83
2021/10/27 10:26:45;;;;;;;3.60;1.98;;;;;;;31.97;18.47;99116.03;5072068;28;20033;-82
2021/10/27 10:29:34;;;;;;;1.77;1.25;;;;;;;32.34;17.34;99119.09;5065922;28;20044;-82
2021/10/27 10:32:26;;;;;;;1.83;1.30;;;;;;;32.55;17.55;99118.28;5066050;28;20036;-82
2021/10/27 10:35:24;;;;;;;1.60;1.50;;;;;;;32.57;17.62;99110.88;5071817;28;20039;-82
2021/10/27 10:38:03;;;;;;;1.50;1.00;;;;;;;32.74;17.91;99108.56;5034137;28;20040;-82
2021/10/27 10:43:18;;;;;;;1.30;1.08;;;;;;;32.40;18.05;99100.97;5067332;28;20508;-83
2021/10/27 10:45:59;;;;;;;3.28;1.45;;;;;;;32.14;18.09;99102.41;5062507;28;20070;-83
2021/10/27 11:44:59;;;;;;;1.65;1.02;;;;;;;33.41;16.57;99043.84;5032300;28;20039;-83
2021/10/27 11:47:39;;;;;;;1.30;1.15;;;;;;;32.60;16.93;99041.66;5060188;28;20067;-83
2021/10/27 11:50:06;;;;;;;1.38;1.17;;;;;;;31.28;17.68;99052.03;5067402;28;20081;-83
2021/10/27 11:52:40;;;;;;;1.20;1.05;;;;;;;30.88;18.47;99040.47;5065656;28;20584;-81
2021/10/27 11:55:08;;;;;;;2.13;1.30;;;;;;;30.94;18.10;99046.38;5070022;28;20486;-82
2021/10/27 11:57:38;;;;;;;3.00;1.20;;;;;;;30.50;19.04;99040.50;5070734;28;20032;-82
2021/10/27 12:00:20;;;;;;;2.55;1.38;;;;;;;31.06;18.44;99042.72;5067645;28;20033;-80
2021/10/27 12:03:10;;;;;;;2.08;1.40;;;;;;;30.79;18.58;99037.53;5066214;28;20086;-83
2021/10/27 12:05:52;;;;;;;1.67;1.30;;;;;;;30.40;18.44;99033.19;5062940;28;20064;-81
2021/10/27 12:08:33;;;;;;;2.58;1.30;;;;;;;30.80;19.01;99035.50;5066837;28;20071;-82
2021/10/27 12:19:13;;;;;;;1.42;1.10;;;;;;;32.97;16.38;99030.34;5042971;28;20047;-84
2021/10/27 12:21:47;;;;;;;2.10;1.33;;;;;;;32.39;17.40;99034.00;5065098;28;20036;-83
2021/10/27 12:24:17;;;;;;;1.50;1.00;;;;;;;31.45;18.26;99029.97;5065986;28;20040;-82
2021/10/27 12:27:02;;;;;;;1.40;1.27;;;;;;;31.36;18.01;99037.16;5068965;28;20033;-82
2021/10/27 12:29:31;;;;;;;1.10;1.00;;;;;;;31.67;17.96;99034.38;5065887;28;20123;-83
2021/10/27 12:32:10;;;;;;;1.27;1.10;;;;;;;30.05;19.26;99031.44;5062395;28;20355;-83
2021/10/27 12:34:57;;;;;;;1.70;0.98;;;;;;;31.15;18.21;99023.72;5060459;28;20032;-84
2021/10/27 12:37:38;;;;;;;2.30;1.63;;;;;;;31.22;18.38;99031.97;5070608;28;20032;-83
2021/10/27 12:40:31;;;;;;;3.10;2.10;;;;;;;31.52;17.96;99032.53;5057458;28;20116;-84
2021/10/27 12:43:10;;;;;;;1.70;1.40;;;;;;;31.33;17.69;99038.06;5062651;28;20098;-82
2021/10/27 12:45:39;;;;;;;3.33;1.90;;;;;;;30.63;19.08;99032.81;5058177;28;20033;-82
2021/10/27 12:48:09;;;;;;;1.63;1.50;;;;;;;31.25;18.25;99033.88;5064147;28;20044;-83
2021/10/27 12:50:36;;;;;;;1.98;1.48;;;;;;;31.49;18.10;99027.78;5043519;28;20482;-82
2021/10/27 12:53:06;;;;;;;3.63;1.58;;;;;;;31.66;17.74;99034.84;5063575;28;20051;-82
2021/10/27 12:55:34;;;;;;;3.35;1.95;;;;;;;31.51;18.06;99033.81;5060534;28;20032;-82
2021/10/27 12:58:08;;;;;;;4.03;1.40;;;;;;;31.15;18.48;99035.06;5062693;28;20044;-82
2021/10/27 13:04:07;;;;;;;3.97;2.42;;;;;;;30.41;19.47;99033.97;5069026;28;20508;-82
2021/10/27 13:09:14;;;;;;;5.28;3.20;;;;;;;29.71;20.18;99034.09;5061585;28;20235;-82
2021/10/27 13:22:58;;;;;;;4.25;2.60;;;;;;;30.48;19.26;99039.41;5061421;28;20064;-80
2021/10/27 13:31:02;;;;;;;6.85;3.13;;;;;;;29.40;20.66;99042.28;5046126;28;20120;-80
2021/10/27 13:33:29;;;;;;;5.03;3.75;;;;;;;29.39;20.60;99037.84;5063633;28;20029;-79
2021/10/27 13:35:55;;;;;;;6.78;3.65;;;;;;;29.33;20.69;99039.66;5048243;28;20045;-81
2021/10/27 13:38:23;;;;;;;4.07;3.38;;;;;;;28.81;21.20;99045.47;5064165;28;20162;-81
2021/10/27 13:40:49;;;;;;;4.97;3.13;;;;;;;28.80;21.19;99040.28;5060603;28;20079;-80
2021/10/27 13:43:22;;;;;;;5.82;3.85;;;;;;;29.75;20.22;99038.41;5070842;28;20039;-82
2021/10/27 13:46:01;;;;;;;5.18;3.67;;;;;;;29.87;19.53;99039.69;5063024;28;20393;-81
2021/10/27 13:48:53;;;;;;;5.00;3.40;;;;;;;29.81;20.00;99047.16;5065057;28;20043;-82
2021/10/27 14:07:44;;;;;;;5.70;3.60;;;;;;;30.12;19.46;99044.59;5063610;28;20105;-82
2021/10/27 14:10:18;;;;;;;5.60;3.55;;;;;;;29.54;20.30;99047.53;5065188;28;20021;-82
2021/10/27 14:50:59;;;;;;;3.22;2.08;;;;;;;32.22;17.60;99031.88;5068718;28;20046;-81
2021/10/27 14:58:51;;;;;;;3.08;2.33;;;;;;;31.93;18.11;99044.31;5059406;28;20179;-81
2021/10/27 15:15:35;;;;;;;3.97;2.28;;;;;;;31.82;18.29;99043.16;5063962;28;20047;-81
2021/10/27 15:21:49;;;;;;;5.18;1.80;;;;;;;30.84;18.70;99047.50;5060433;28;20104;-80
2021/10/27 15:24:41;;;;;;;3.78;1.98;;;;;;;30.90;18.92;99045.72;5063950;28;20048;-81
2021/10/27 15:32:29;;;;;;;6.20;2.22;;;;;;;30.20;19.36;99043.91;5060560;28;20123;-80
2021/10/27 15:35:30;;;;;;;4.63;2.30;;;;;;;29.98;19.34;99046.63;5049288;28;20028;-80
2021/10/27 15:43:06;;;;;;;10.85;3.05;;;;;;;30.02;19.08;99038.00;5069979;28;20040;-81
2021/10/27 15:45:42;;;;;;;9.98;4.45;;;;;;;30.02;19.50;99047.31;5049023;28;20028;-81
2021/10/27 15:51:02;;;;;;;10.38;3.97;;;;;;;29.91;19.53;99046.84;5066467;28;20127;-80
2021/10/27 15:53:28;;;;;;;4.95;3.67;;;;;;;29.84;19.39;99040.59;5068926;28;20477;-80
2021/10/27 15:55:55;;;;;;;9.10;4.57;;;;;;;29.74;19.41;99047.34;5062008;28;20032;-80
2021/10/27 15:58:22;;;;;;;6.70;4.03;;;;;;;29.42;19.73;99048.28;5065604;28;20107;-80
2021/10/27 16:00:48;;;;;;;14.50;4.18;;;;;;;29.39;19.81;99049.97;5063270;28;20036;-80
2021/10/27 16:03:16;;;;;;;11.27;4.57;;;;;;;29.36;19.80;99050.84;5065024;28;20040;-82
2021/10/27 16:05:45;;;;;;;5.47;3.70;;;;;;;29.40;19.67;99054.38;5060519;28;20513;-81
2021/10/27 16:08:17;;;;;;;7.18;4.10;;;;;;;29.35;19.63;99056.97;5082559;28;23083;-81
2021/10/27 16:10:44;;;;;;;7.13;4.65;;;;;;;29.23;19.39;99057.69;5068670;28;20029;-80